Time;durP1;ratioP1;P1;durP2;ratioP2;P2;SDS_P1;SDS_P2;PMS_P1;PMS_P2;Temp;Humidity;BMP_temperature;BMP_pressure;BME280_temperature;BME280_humidity;BME280_pressure;Samples;Min_cycle;Max_cycle;Signal;HPM_P1;HPM_P2
2024/03/26 18:13:58;;;;;;;;;1.00;1.00;;;;;22.84;39.52;98290.72;5484927;23;46184;-79
2024/03/26 18:16:23;;;;;;;;;1.00;0.67;;;;;22.87;39.18;98294.72;4928694;28;45585;-76
2024/03/26 18:18:49;;;;;;;;;1.67;1.67;;;;;22.93;39.66;98306.97;4910821;28;45379;-77
2024/03/26 18:21:14;;;;;;;;;2.00;0.33;;;;;22.93;39.77;98309.63;4912850;28;45537;-78
2024/03/26 18:23:40;;;;;;;;;3.00;1.67;;;;;22.98;39.37;98317.63;4918121;28;46817;-78
2024/03/26 18:26:06;;;;;;;;;0.00;0.00;;;;;22.93;39.31;98307.78;4919689;28;45306;-78
2024/03/26 18:28:33;;;;;;;;;1.00;1.00;;;;;23.00;39.40;98306.78;4920253;28;45316;-80
2024/03/26 18:31:00;;;;;;;;;1.00;1.00;;;;;23.01;39.27;98295.94;4919532;28;45342;-86
2024/03/26 18:33:26;;;;;;;;;1.00;1.00;;;;;22.96;39.43;98293.22;4917864;28;45536;-82
2024/03/26 18:35:59;;;;;;;;;1.00;1.00;;;;;23.04;39.52;98299.94;4919722;28;45440;-79
2024/03/26 18:38:25;;;;;;;;;1.33;1.00;;;;;23.06;39.94;98319.84;4919757;28;45316;-76
2024/03/26 18:41:07;;;;;;;;;2.00;2.00;;;;;23.07;39.55;98340.03;4919578;28;45324;-75
2024/03/26 18:43:34;;;;;;;;;2.67;2.00;;;;;23.12;39.44;98372.94;4919144;28;46219;-79
2024/03/26 18:46:10;;;;;;;;;0.67;0.67;;;;;23.14;39.72;98369.00;4917912;28;45575;-75
2024/03/26 18:48:37;;;;;;;;;1.00;1.00;;;;;23.06;39.93;98343.72;4919309;28;45458;-80
2024/03/26 18:51:03;;;;;;;;;1.00;1.00;;;;;23.22;39.81;98353.69;4918396;28;45498;-76
2024/03/26 18:53:29;;;;;;;;;1.00;1.00;;;;;23.23;40.21;98356.09;4919149;28;47461;-75
2024/03/26 18:56:18;;;;;;;;;2.00;1.00;;;;;23.26;40.19;98355.59;4919428;28;45347;-76
2024/03/26 18:58:43;;;;;;;;;3.00;3.00;;;;;23.26;40.30;98360.13;4918183;28;45418;-79
2024/03/26 19:01:17;;;;;;;;;4.33;3.33;;;;;23.26;40.28;98370.72;4919176;28;45214;-79
2024/03/26 19:03:44;;;;;;;;;4.33;3.67;;;;;23.16;40.02;98358.94;4919120;28;45406;-77
2024/03/26 19:06:09;;;;;;;;;6.67;4.67;;;;;23.35;39.71;98379.03;4902485;28;46109;-78
2024/03/26 19:08:35;;;;;;;;;4.00;4.00;;;;;23.36;40.00;98378.00;4900180;28;46054;-80
2024/03/26 19:11:01;;;;;;;;;6.00;6.00;;;;;23.23;40.02;98374.69;4900167;28;45439;-79
2024/03/26 19:13:27;;;;;;;;;4.00;4.00;;;;;23.32;40.16;98398.91;4899164;28;46115;-80
2024/03/26 19:15:56;;;;;;;;;8.00;5.00;;;;;23.40;40.07;98406.41;4922348;28;45482;-76
2024/03/26 19:18:21;;;;;;;;;5.00;5.00;;;;;23.38;40.40;98410.38;4908664;28;45364;-81
2024/03/26 19:20:48;;;;;;;;;5.00;5.00;;;;;23.41;40.30;98415.19;4907612;28;45277;-76
2024/03/26 19:23:14;;;;;;;;;6.00;4.67;;;;;23.39;40.43;98412.00;4911302;28;45636;-75
2024/03/26 19:25:40;;;;;;;;;4.00;3.33;;;;;23.43;40.32;98436.97;4908344;28;45433;-78
2024/03/26 19:28:06;;;;;;;;;4.67;4.67;;;;;23.44;40.61;98437.78;4912802;28;45481;-77
2024/03/26 19:30:35;;;;;;;;;7.33;6.67;;;;;23.34;40.44;98422.53;4912192;28;45552;-76
2024/03/26 19:33:00;;;;;;;;;4.67;4.33;;;;;23.36;40.62;98409.81;4912839;28;47188;-79
2024/03/26 19:35:26;;;;;;;;;3.67;3.67;;;;;23.33;40.41;98405.00;4916460;28;45236;-78
2024/03/26 19:37:52;;;;;;;;;4.00;4.00;;;;;23.48;40.55;98429.06;4917807;28;45417;-77
2024/03/26 19:40:17;;;;;;;;;5.33;5.00;;;;;23.35;40.66;98400.25;4918144;28;45319;-78
2024/03/26 19:42:42;;;;;;;;;5.00;5.00;;;;;23.51;40.38;98414.53;4917371;28;45936;-75
2024/03/26 19:45:11;;;;;;;;;5.67;5.00;;;;;23.34;40.52;98386.19;4917339;28;45381;-76
2024/03/26 19:47:37;;;;;;;;;4.00;4.00;;;;;23.52;40.47;98418.78;4917094;28;45461;-77
2024/03/26 19:50:05;;;;;;;;;4.33;4.33;;;;;23.52;40.38;98408.19;4905988;28;45484;-76
2024/03/26 19:52:31;;;;;;;;;7.00;4.33;;;;;23.37;40.48;98393.66;4905463;28;46321;-78
2024/03/26 19:54:56;;;;;;;;;4.00;3.67;;;;;23.39;40.27;98410.13;4910737;28;45621;-74
2024/03/26 19:57:22;;;;;;;;;3.67;3.67;;;;;23.47;40.57;98426.66;4917550;28;45284;-75
2024/03/26 19:59:48;;;;;;;;;5.33;5.00;;;;;23.55;40.46;98428.09;4911560;28;45481;-74
2024/03/26 20:02:14;;;;;;;;;3.00;3.00;;;;;23.43;40.63;98405.13;4916554;28;45287;-76
2024/03/26 20:04:39;;;;;;;;;3.67;3.67;;;;;23.42;40.84;98406.16;4915016;28;46613;-75
2024/03/26 20:07:05;;;;;;;;;3.00;3.00;;;;;23.54;40.59;98423.84;4917771;28;45472;-75
2024/03/26 20:09:32;;;;;;;;;5.00;4.00;;;;;23.52;40.83;98418.78;4913248;28;45394;-75
2024/03/26 20:11:58;;;;;;;;;5.00;4.00;;;;;23.54;40.47;98399.94;4904644;28;46288;-75
2024/03/26 20:14:25;;;;;;;;;4.00;3.00;;;;;23.49;40.73;98392.72;4913417;28;45378;-76
2024/03/26 20:16:52;;;;;;;;;5.00;4.00;;;;;23.48;40.60;98376.00;4917468;28;45331;-74
2024/03/26 20:19:17;;;;;;;;;4.33;3.00;;;;;23.56;40.98;98387.22;4917285;28;45376;-75
2024/03/26 20:21:43;;;;;;;;;4.00;4.00;;;;;23.57;40.69;98379.03;4916395;28;46069;-75
2024/03/26 20:24:08;;;;;;;;;4.00;4.00;;;;;23.58;40.19;98343.47;4914164;28;45367;-75
2024/03/26 20:26:33;;;;;;;;;3.67;2.67;;;;;23.47;40.78;98308.03;4917452;28;45356;-74
2024/03/26 20:29:01;;;;;;;;;4.00;4.00;;;;;23.62;40.22;98351.72;4916756;28;45814;-75
2024/03/26 20:31:26;;;;;;;;;3.00;3.00;;;;;23.59;40.37;98423.88;4907484;28;46105;-75
2024/03/26 20:33:52;;;;;;;;;2.33;2.33;;;;;23.60;40.14;98491.88;4917034;28;45347;-76
2024/03/26 20:36:17;;;;;;;;;3.33;2.00;;;;;23.49;40.30;98488.25;4917307;28;45358;-75
2024/03/26 20:38:44;;;;;;;;;3.00;1.67;;;;;23.52;40.45;98498.41;4912927;28;45591;-76
2024/03/26 20:41:09;;;;;;;;;4.00;2.33;;;;;23.66;40.74;98514.75;4916661;28;46076;-79
2024/03/26 20:43:36;;;;;;;;;3.33;3.33;;;;;23.52;40.52;98501.84;4914730;28;45477;-79
2024/03/26 20:46:04;;;;;;;;;3.00;3.00;;;;;23.50;40.65;98492.53;4909939;28;45465;-80
2024/03/26 20:48:30;;;;;;;;;3.33;2.00;;;;;23.21;40.48;98456.38;4917359;28;45449;-80
2024/03/26 20:50:56;;;;;;;;;5.67;4.00;;;;;23.48;40.20;98491.94;4908505;28;46172;-80
2024/03/26 20:53:21;;;;;;;;;3.00;3.00;;;;;23.56;40.57;98504.81;4912644;28;45304;-80
2024/03/26 20:55:47;;;;;;;;;1.33;1.33;;;;;23.70;40.52;98536.31;4913927;28;45931;-74
2024/03/26 20:58:13;;;;;;;;;2.67;2.67;;;;;23.64;40.55;98530.13;4909486;28;45429;-75
2024/03/26 21:00:38;;;;;;;;;3.67;3.67;;;;;23.66;40.48;98554.56;4913514;28;46096;-75
2024/03/26 21:03:04;;;;;;;;;1.33;1.33;;;;;23.71;40.80;98559.13;4912862;28;45584;-75
2024/03/26 21:05:31;;;;;;;;;2.33;2.00;;;;;23.71;40.64;98551.16;4911608;28;45485;-75
2024/03/26 21:07:57;;;;;;;;;3.33;2.00;;;;;23.57;40.20;98530.31;4911595;28;45510;-76
2024/03/26 21:10:22;;;;;;;;;3.00;3.00;;;;;23.68;40.67;98555.09;4910813;28;46536;-75
2024/03/26 21:12:48;;;;;;;;;2.00;2.00;;;;;23.68;40.69;98555.09;4910872;28;45558;-75
2024/03/26 21:15:13;;;;;;;;;2.00;2.00;;;;;23.66;40.24;98559.06;4911777;28;45494;-77
2024/03/26 21:17:42;;;;;;;;;2.00;2.00;;;;;23.70;40.38;98561.00;4912939;28;45353;-79
2024/03/26 21:20:13;;;;;;;;;2.33;2.33;;;;;23.72;40.20;98550.13;4909466;28;46169;-76
2024/03/26 21:22:40;;;;;;;;;2.67;2.67;;;;;23.65;40.30;98544.19;4918827;28;45415;-75
2024/03/26 21:25:07;;;;;;;;;2.00;1.33;;;;;23.71;40.90;98565.25;4918815;28;45354;-76
2024/03/26 21:27:32;;;;;;;;;1.33;1.33;;;;;23.72;40.37;98568.72;4919035;28;45451;-76
2024/03/26 21:29:57;;;;;;;;;1.67;1.67;;;;;23.71;40.21;98572.41;4919094;28;46135;-76
2024/03/26 21:32:23;;;;;;;;;3.33;2.00;;;;;23.62;40.64;98575.50;4919874;28;45382;-75
2024/03/26 21:34:48;;;;;;;;;1.00;1.00;;;;;23.69;40.24;98580.63;4909931;28;45331;-76
2024/03/26 21:37:13;;;;;;;;;1.67;1.67;;;;;23.50;40.53;98554.38;4919474;28;45399;-80
2024/03/26 21:39:39;;;;;;;;;0.33;0.33;;;;;23.54;40.69;98578.59;4914722;28;47169;-78
2024/03/26 21:42:04;;;;;;;;;1.33;1.33;;;;;23.59;40.78;98570.69;4912297;28;45395;-76
2024/03/26 21:44:30;;;;;;;;;0.33;0.00;;;;;23.69;40.75;98579.81;4918646;28;45445;-76
2024/03/26 21:46:57;;;;;;;;;1.00;1.00;;;;;23.35;40.65;98523.13;4914423;28;45329;-76
2024/03/26 21:49:22;;;;;;;;;0.00;0.00;;;;;23.68;40.77;98560.41;4914499;28;45628;-76
2024/03/26 21:51:48;;;;;;;;;2.00;0.00;;;;;23.35;40.49;98509.84;4917912;28;45435;-76
2024/03/26 21:54:14;;;;;;;;;0.67;0.67;;;;;23.66;40.32;98561.72;4918195;28;45519;-76
2024/03/26 21:56:39;;;;;;;;;3.00;0.00;;;;;23.65;40.61;98570.75;4914343;28;45646;-77
2024/03/26 21:59:05;;;;;;;;;1.00;1.00;;;;;23.62;40.87;98559.59;4918023;28;46484;-76
2024/03/26 22:01:31;;;;;;;;;0.33;0.33;;;;;23.16;40.36;98506.69;4918671;28;45490;-76
2024/03/26 22:03:58;;;;;;;;;2.00;2.00;;;;;23.66;40.47;98553.75;4918963;28;45427;-76
2024/03/26 22:06:23;;;;;;;;;1.00;1.00;;;;;23.51;40.61;98536.59;4919055;28;45475;-75
2024/03/26 22:08:48;;;;;;;;;0.67;0.33;;;;;23.18;40.97;98492.13;4917991;28;47293;-76
2024/03/26 22:11:14;;;;;;;;;1.00;1.00;;;;;23.15;40.77;98491.81;4918925;28;45386;-76
2024/03/26 22:13:40;;;;;;;;;2.00;2.00;;;;;23.68;40.53;98541.06;4917769;28;45227;-75
2024/03/26 22:16:06;;;;;;;;;4.00;1.67;;;;;23.68;40.44;98502.03;4913664;28;45633;-76
2024/03/26 22:18:32;;;;;;;;;2.00;0.33;;;;;23.69;40.80;98463.81;4918457;28;46235;-76
2024/03/26 22:20:59;;;;;;;;;1.00;1.00;;;;;23.68;40.69;98435.66;4918176;28;45287;-76
2024/03/26 22:23:24;;;;;;;;;2.00;2.00;;;;;23.36;40.79;98356.75;4918947;28;45311;-74
2024/03/26 22:26:01;;;;;;;;;1.00;1.00;;;;;23.68;40.74;98405.69;4917845;28;45326;-76
2024/03/26 22:28:26;;;;;;;;;1.00;1.00;;;;;23.66;40.45;98426.34;4919140;28;46496;-78
2024/03/26 22:30:52;;;;;;;;;0.00;0.00;;;;;23.50;40.78;98411.06;4918994;28;45576;-79
2024/03/26 22:33:19;;;;;;;;;1.00;1.00;;;;;23.69;40.77;98442.56;4918351;28;45379;-79
2024/03/26 22:35:45;;;;;;;;;2.00;1.00;;;;;23.50;40.91;98410.25;4914478;28;45482;-77
2024/03/26 22:38:10;;;;;;;;;1.00;1.00;;;;;23.63;38.63;98433.75;4918141;28;46377;-78
